Time;durP1;ratioP1;P1;durP2;ratioP2;P2;SDS_P1;SDS_P2;PMS_P1;PMS_P2;Temp;Humidity;BMP_temperature;BMP_pressure;BME280_temperature;BME280_humidity;BME280_pressure;Samples;Min_cycle;Max_cycle;Signal;HPM_P1;HPM_P2
2021/08/16 00:04:42;;;;;;;5.82;4.03;;;;;;;;;;10322671;28;20062;-59
2021/08/16 00:09:42;;;;;;;5.07;3.80;;;;;;;;;;10322601;28;20079;-59
2021/08/16 00:14:40;;;;;;;4.78;3.85;;;;;;;;;;10322374;28;20053;-59
2021/08/16 00:19:39;;;;;;;5.32;4.50;;;;;;;;;;10322307;28;20044;-59
2021/08/16 00:24:37;;;;;;;5.63;4.50;;;;;;;;;;10321956;28;20048;-59
2021/08/16 00:29:37;;;;;;;5.47;4.25;;;;;;;;;;10321879;28;20041;-59
2021/08/16 00:34:35;;;;;;;11.85;5.03;;;;;;;;;;10321619;28;20084;-59
2021/08/16 00:39:33;;;;;;;4.70;3.75;;;;;;;;;;10321473;28;20045;-59
2021/08/16 00:44:31;;;;;;;6.80;4.57;;;;;;;;;;10321240;28;20049;-59
2021/08/16 00:49:31;;;;;;;9.13;4.25;;;;;;;;;;10319998;28;20076;-59
2021/08/16 00:54:31;;;;;;;5.70;4.82;;;;;;;;;;10320746;28;20080;-60
2021/08/16 00:59:30;;;;;;;4.60;4.13;;;;;;;;;;10319754;28;20048;-60
2021/08/16 01:04:28;;;;;;;6.05;4.75;;;;;;;;;;10320515;28;20248;-61
2021/08/16 01:09:28;;;;;;;8.63;3.97;;;;;;;;;;10320255;28;20436;-60
2021/08/16 01:14:26;;;;;;;9.10;4.55;;;;;;;;;;10320057;28;20162;-60
2021/08/16 01:19:24;;;;;;;8.15;4.40;;;;;;;;;;10319982;28;20040;-60
2021/08/16 01:24:23;;;;;;;8.52;4.30;;;;;;;;;;10319603;28;20040;-60
2021/08/16 01:29:22;;;;;;;6.53;4.43;;;;;;;;;;10319498;28;20048;-60
2021/08/16 01:34:29;;;;;;;5.15;4.05;;;;;;;;;;10319426;28;20068;-60
2021/08/16 01:39:28;;;;;;;4.72;4.28;;;;;;;;;;10319043;28;20045;-60
2021/08/16 01:44:27;;;;;;;5.20;3.88;;;;;;;;;;10318554;28;20049;-60
2021/08/16 01:49:26;;;;;;;5.90;4.10;;;;;;;;;;10317400;28;20048;-60
2021/08/16 01:54:24;;;;;;;5.25;4.25;;;;;;;;;;10318463;28;20075;-60
2021/08/16 01:59:22;;;;;;;6.32;4.00;;;;;;;;;;10318437;28;20041;-60
2021/08/16 02:04:22;;;;;;;5.57;4.35;;;;;;;;;;10318123;28;20409;-60
2021/08/16 02:09:20;;;;;;;4.63;4.20;;;;;;;;;;10318018;28;20049;-61
2021/08/16 02:14:19;;;;;;;6.13;4.15;;;;;;;;;;10317707;28;20076;-61
2021/08/16 02:19:17;;;;;;;6.00;4.43;;;;;;;;;;10317375;28;20041;-61
2021/08/16 02:24:16;;;;;;;4.70;4.00;;;;;;;;;;10316437;28;20047;-61
2021/08/16 02:29:15;;;;;;;4.53;3.97;;;;;;;;;;10317134;28;20055;-61
2021/08/16 02:34:13;;;;;;;5.15;4.28;;;;;;;;;;10316744;28;20076;-61
2021/08/16 02:39:12;;;;;;;5.10;4.55;;;;;;;;;;10316110;28;20033;-60
2021/08/16 02:44:11;;;;;;;9.02;4.68;;;;;;;;;;10317118;28;20048;-61
2021/08/16 02:49:10;;;;;;;5.40;4.53;;;;;;;;;;10315943;28;20558;-59
2021/08/16 02:54:08;;;;;;;7.47;4.47;;;;;;;;;;10316699;28;20076;-60
2021/08/16 02:59:06;;;;;;;8.55;4.30;;;;;;;;;;10316708;28;20087;-60
2021/08/16 03:04:06;;;;;;;6.40;4.22;;;;;;;;;;10315545;28;20064;-60
2021/08/16 03:09:04;;;;;;;4.82;4.32;;;;;;;;;;10316471;28;20512;-60
2021/08/16 03:14:03;;;;;;;7.90;4.20;;;;;;;;;;10316289;28;20076;-60
2021/08/16 03:19:01;;;;;;;4.88;4.28;;;;;;;;;;10316402;28;20052;-60
2021/08/16 03:24:01;;;;;;;5.18;4.20;;;;;;;;;;10316223;28;20393;-60
2021/08/16 03:28:59;;;;;;;5.85;3.95;;;;;;;;;;10317651;28;20053;-60
2021/08/16 03:33:57;;;;;;;6.30;4.28;;;;;;;;;;10323291;28;20072;-60
2021/08/16 03:38:55;;;;;;;7.80;4.38;;;;;;;;;;10323664;28;20076;-60
2021/08/16 03:43:55;;;;;;;7.95;4.40;;;;;;;;;;10323396;28;20072;-60
2021/08/16 03:48:53;;;;;;;5.97;5.35;;;;;;;;;;10322418;28;20087;-61
2021/08/16 03:53:52;;;;;;;4.88;4.38;;;;;;;;;;10322960;28;20083;-61
2021/08/16 03:58:50;;;;;;;6.10;4.45;;;;;;;;;;10322610;28;20040;-61
2021/08/16 04:03:50;;;;;;;6.00;4.55;;;;;;;;;;10321611;28;20067;-61
2021/08/16 04:08:48;;;;;;;5.85;4.65;;;;;;;;;;10322615;28;20099;-61
2021/08/16 04:13:46;;;;;;;7.18;4.00;;;;;;;;;;10322381;28;20464;-61
2021/08/16 04:18:45;;;;;;;7.13;4.40;;;;;;;;;;10321484;28;20048;-61
2021/08/16 04:23:44;;;;;;;4.32;3.72;;;;;;;;;;10322071;28;20075;-61
2021/08/16 04:28:43;;;;;;;7.00;4.78;;;;;;;;;;10321920;28;20040;-61
2021/08/16 04:33:41;;;;;;;6.05;4.30;;;;;;;;;;10321839;28;20087;-61
2021/08/16 04:38:39;;;;;;;9.52;5.22;;;;;;;;;;10321433;28;20080;-61
2021/08/16 04:43:39;;;;;;;7.18;5.45;;;;;;;;;;10320982;28;20067;-60
2021/08/16 04:48:37;;;;;;;6.72;4.35;;;;;;;;;;10320499;28;20094;-60
2021/08/16 04:53:36;;;;;;;7.60;4.35;;;;;;;;;;10320723;28;20068;-61
2021/08/16 04:58:34;;;;;;;4.82;4.32;;;;;;;;;;10320487;28;20387;-61
2021/08/16 05:03:34;;;;;;;6.85;4.93;;;;;;;;;;10319734;28;20041;-61
2021/08/16 05:08:32;;;;;;;4.97;3.90;;;;;;;;;;10320259;28;20390;-60
2021/08/16 05:13:31;;;;;;;5.35;4.57;;;;;;;;;;10320040;28;20083;-61
2021/08/16 05:18:29;;;;;;;7.60;4.70;;;;;;;;;;10319793;28;20523;-61
2021/08/16 05:23:29;;;;;;;7.95;5.20;;;;;;;;;;10319578;28;20485;-61
2021/08/16 05:28:28;;;;;;;6.20;4.30;;;;;;;;;;10318587;28;20051;-61
2021/08/16 05:33:27;;;;;;;7.03;4.55;;;;;;;;;;10318348;28;20094;-61
2021/08/16 05:38:25;;;;;;;4.65;4.25;;;;;;;;;;10319095;28;20508;-61
2021/08/16 05:43:25;;;;;;;6.00;4.50;;;;;;;;;;10318117;28;20421;-61
2021/08/16 05:48:23;;;;;;;7.57;5.40;;;;;;;;;;10317927;28;20048;-61
2021/08/16 05:53:21;;;;;;;5.45;4.28;;;;;;;;;;10316133;28;20087;-61
2021/08/16 05:58:20;;;;;;;8.05;4.57;;;;;;;;;;10318300;28;20044;-61
2021/08/16 06:03:19;;;;;;;10.88;4.85;;;;;;;;;;10318042;28;20040;-61
2021/08/16 06:08:18;;;;;;;9.40;4.72;;;;;;;;;;10317998;28;20048;-61
2021/08/16 06:13:16;;;;;;;25.35;8.07;;;;;;;;;;10317780;28;20091;-61
2021/08/16 06:18:15;;;;;;;22.75;6.60;;;;;;;;;;10317449;28;20445;-61
2021/08/16 06:23:14;;;;;;;11.60;4.85;;;;;;;;;;10317393;28;20401;-61
2021/08/16 06:28:12;;;;;;;6.43;4.00;;;;;;;;;;10317279;28;20047;-61
2021/08/16 06:33:11;;;;;;;9.88;5.20;;;;;;;;;;10316904;28;20083;-61
2021/08/16 06:38:20;;;;;;;7.53;4.38;;;;;;;;;;10317035;28;20075;-62
2021/08/16 06:43:20;;;;;;;6.40;4.15;;;;;;;;;;10316994;28;20041;-61
2021/08/16 06:48:18;;;;;;;6.72;3.83;;;;;;;;;;10316290;28;20092;-60
2021/08/16 06:53:16;;;;;;;4.90;4.38;;;;;;;;;;10316664;28;20076;-61
2021/08/16 06:58:15;;;;;;;7.50;3.85;;;;;;;;;;10316402;28;20040;-61
2021/08/16 07:03:14;;;;;;;4.65;3.60;;;;;;;;;;10318283;28;20040;-60
2021/08/16 07:08:14;;;;;;;11.43;4.13;;;;;;;;;;10324828;28;20052;-60
2021/08/16 07:13:12;;;;;;;5.43;3.65;;;;;;;;;;10324601;28;20072;-61
2021/08/16 07:18:10;;;;;;;4.57;4.07;;;;;;;;;;10324420;28;20080;-61
2021/08/16 07:23:10;;;;;;;6.55;4.20;;;;;;;;;;10324366;28;20047;-61
2021/08/16 07:28:09;;;;;;;10.25;4.82;;;;;;;;;;10324029;28;20505;-60
2021/08/16 07:33:07;;;;;;;9.25;4.30;;;;;;;;;;10323771;28;20424;-61
2021/08/16 07:38:05;;;;;;;7.50;5.40;;;;;;;;;;10323697;28;20532;-61
2021/08/16 07:43:05;;;;;;;10.98;5.10;;;;;;;;;;10322756;28;20099;-61
2021/08/16 07:48:04;;;;;;;5.75;4.20;;;;;;;;;;10322262;28;20041;-61
2021/08/16 07:53:02;;;;;;;7.20;3.95;;;;;;;;;;10323444;28;20056;-61
2021/08/16 07:58:01;;;;;;;8.45;4.57;;;;;;;;;;10322652;28;20099;-60
2021/08/16 08:03:00;;;;;;;6.38;4.13;;;;;;;;;;10322512;28;20040;-61
2021/08/16 08:08:00;;;;;;;14.23;5.03;;;;;;;;;;10322595;28;20044;-61
2021/08/16 08:12:58;;;;;;;6.82;3.60;;;;;;;;;;10322415;28;20501;-60
2021/08/16 08:17:57;;;;;;;4.63;3.83;;;;;;;;;;10321351;28;20040;-61
2021/08/16 08:22:57;;;;;;;5.50;3.53;;;;;;;;;;10322033;28;20040;-61
2021/08/16 08:27:55;;;;;;;21.35;19.10;;;;;;;;;;10321723;28;20080;-60
2021/08/16 08:32:54;;;;;;;4.57;4.18;;;;;;;;;;10321574;28;20083;-60
2021/08/16 08:37:52;;;;;;;4.78;3.80;;;;;;;;;;10321429;28;20080;-60
2021/08/16 08:42:54;;;;;;;14.25;12.90;;;;;;;;;;10321367;28;20075;-60
2021/08/16 08:47:52;;;;;;;8.93;4.55;;;;;;;;;;10320191;28;20091;-61
2021/08/16 08:52:51;;;;;;;5.57;4.10;;;;;;;;;;10320149;28;20079;-61
2021/08/16 08:57:50;;;;;;;6.13;3.97;;;;;;;;;;10320480;28;20484;-61
2021/08/16 09:02:57;;;;;;;4.70;3.92;;;;;;;;;;10320255;28;20055;-61
2021/08/16 09:07:58;;;;;;;5.65;4.00;;;;;;;;;;10319616;28;20512;-61
2021/08/16 09:12:57;;;;;;;6.95;3.60;;;;;;;;;;10320364;28;20052;-61
2021/08/16 09:18:02;;;;;;;4.03;3.63;;;;;;;;;;10320004;28;20086;-61
2021/08/16 09:23:01;;;;;;;4.20;3.80;;;;;;;;;;10319643;28;20041;-61
2021/08/16 09:27:59;;;;;;;8.23;5.88;;;;;;;;;;10318158;28;20044;-61
2021/08/16 09:33:10;;;;;;;7.68;4.05;;;;;;;;;;10318993;28;20053;-62
2021/08/16 09:38:08;;;;;;;4.70;4.20;;;;;;;;;;10318943;28;20098;-60
2021/08/16 09:43:06;;;;;;;4.45;3.50;;;;;;;;;;10318845;28;20401;-60
2021/08/16 09:48:07;;;;;;;6.25;4.15;;;;;;;;;;10317654;28;20048;-61
2021/08/16 09:53:07;;;;;;;4.97;4.38;;;;;;;;;;10318617;28;20489;-61
2021/08/16 09:58:07;;;;;;;4.70;4.28;;;;;;;;;;10317945;28;20083;-61
2021/08/16 10:03:08;;;;;;;5.13;4.00;;;;;;;;;;10316181;28;20036;-60
2021/08/16 10:08:08;;;;;;;5.35;3.92;;;;;;;;;;10317959;28;20083;-61
2021/08/16 10:13:07;;;;;;;8.50;5.07;;;;;;;;;;10318054;28;20040;-61
2021/08/16 10:18:09;;;;;;;7.13;4.57;;;;;;;;;;10316827;28;20464;-62
2021/08/16 10:23:18;;;;;;;5.10;4.60;;;;;;;;;;10316719;28;20080;-62
2021/08/16 10:28:23;;;;;;;6.32;4.47;;;;;;;;;;10317376;28;20306;-62
2021/08/16 10:33:23;;;;;;;5.07;4.47;;;;;;;;;;10316589;28;20079;-61
2021/08/16 10:38:23;;;;;;;9.30;4.30;;;;;;;;;;10317147;28;20091;-61
2021/08/16 10:43:21;;;;;;;4.65;4.00;;;;;;;;;;10317049;28;20048;-61
2021/08/16 10:48:24;;;;;;;5.95;4.70;;;;;;;;;;10315956;28;20052;-61
2021/08/16 10:53:24;;;;;;;8.98;4.75;;;;;;;;;;10316983;28;20079;-61
2021/08/16 10:58:23;;;;;;;4.88;4.38;;;;;;;;;;10316996;28;20080;-61
2021/08/16 11:03:27;;;;;;;8.73;4.45;;;;;;;;;;10316571;28;20485;-62
2021/08/16 11:08:30;;;;;;;5.38;4.20;;;;;;;;;;10316731;28;20082;-61
2021/08/16 11:13:32;;;;;;;9.00;4.57;;;;;;;;;;10316623;28;20048;-61
2021/08/16 11:18:32;;;;;;;5.57;4.30;;;;;;;;;;10316365;28;20080;-61
2021/08/16 11:23:30;;;;;;;7.32;4.72;;;;;;;;;;10316168;28;20052;-62
2021/08/16 11:28:29;;;;;;;7.45;4.20;;;;;;;;;;10316232;28;20456;-61
2021/08/16 11:33:29;;;;;;;6.47;4.88;;;;;;;;;;10316093;28;20068;-61
2021/08/16 11:38:29;;;;;;;5.68;4.90;;;;;;;;;;10315996;28;20087;-60
2021/08/16 11:43:27;;;;;;;6.15;5.10;;;;;;;;;;10314074;28;20417;-61
2021/08/16 11:48:25;;;;;;;8.05;5.18;;;;;;;;;;10314647;28;20124;-61
2021/08/16 11:53:23;;;;;;;6.60;4.72;;;;;;;;;;10322017;28;20519;-61
2021/08/16 11:58:34;;;;;;;7.35;4.70;;;;;;;;;;10322101;28;20079;-62
2021/08/16 12:03:32;;;;;;;9.23;4.68;;;;;;;;;;10322844;28;20064;-62
2021/08/16 12:08:32;;;;;;;5.53;5.03;;;;;;;;;;10322743;28;20048;-61
2021/08/16 12:13:32;;;;;;;7.55;4.40;;;;;;;;;;10321570;28;20045;-61
2021/08/16 12:18:32;;;;;;;6.80;5.07;;;;;;;;;;10322138;28;20091;-60
2021/08/16 12:23:31;;;;;;;6.63;4.55;;;;;;;;;;10322015;28;20460;-61
2021/08/16 12:28:38;;;;;;;6.22;4.68;;;;;;;;;;10321914;28;20490;-61
2021/08/16 12:33:36;;;;;;;5.63;4.55;;;;;;;;;;10321798;28;20032;-62
2021/08/16 12:38:34;;;;;;;17.92;6.78;;;;;;;;;;10321600;28;20044;-61
2021/08/16 12:43:37;;;;;;;7.10;4.88;;;;;;;;;;10321451;28;20059;-61
2021/08/16 12:48:39;;;;;;;10.20;4.97;;;;;;;;;;10320133;28;20049;-61
2021/08/16 12:53:38;;;;;;;5.53;5.03;;;;;;;;;;10321002;28;20044;-61
2021/08/16 12:58:38;;;;;;;7.72;5.32;;;;;;;;;;10320613;28;20071;-61
2021/08/16 13:03:36;;;;;;;10.80;5.85;;;;;;;;;;10319794;28;20044;-61
2021/08/16 13:08:35;;;;;;;5.30;4.80;;;;;;;;;;10320424;28;20036;-61
2021/08/16 13:13:33;;;;;;;6.38;4.40;;;;;;;;;;10320162;28;20089;-62
2021/08/16 13:18:33;;;;;;;9.65;5.00;;;;;;;;;;10319945;28;20087;-61
2021/08/16 13:23:32;;;;;;;11.35;4.18;;;;;;;;;;10319057;28;20044;-62
2021/08/16 13:28:30;;;;;;;5.40;4.25;;;;;;;;;;10319495;28;20040;-60
2021/08/16 13:33:29;;;;;;;5.63;4.85;;;;;;;;;;10319503;28;20080;-61
2021/08/16 13:38:28;;;;;;;5.90;5.38;;;;;;;;;;10318424;28;20095;-61
2021/08/16 13:43:27;;;;;;;5.57;4.95;;;;;;;;;;10318754;28;20049;-62
2021/08/16 13:48:25;;;;;;;6.43;4.60;;;;;;;;;;10317860;28;20052;-62
2021/08/16 13:53:23;;;;;;;8.38;4.78;;;;;;;;;;10318448;28;20084;-61
2021/08/16 13:58:23;;;;;;;7.75;5.13;;;;;;;;;;10318189;28;20087;-66
2021/08/16 14:03:21;;;;;;;9.85;5.20;;;;;;;;;;10317957;28;20079;-61
2021/08/16 14:08:20;;;;;;;19.00;6.03;;;;;;;;;;10318089;28;20048;-61
2021/08/16 14:13:18;;;;;;;12.95;5.38;;;;;;;;;;10317259;28;20086;-62
2021/08/16 14:18:18;;;;;;;9.55;4.90;;;;;;;;;;10317934;28;20087;-62
2021/08/16 14:23:16;;;;;;;11.05;5.72;;;;;;;;;;10317391;28;20474;-62
2021/08/16 14:28:15;;;;;;;8.82;5.18;;;;;;;;;;10317305;28;20414;-62
2021/08/16 14:33:14;;;;;;;4.90;4.40;;;;;;;;;;10317009;28;20501;-62
2021/08/16 14:38:13;;;;;;;5.13;4.53;;;;;;;;;;10317450;28;20075;-61
2021/08/16 14:43:12;;;;;;;13.88;8.30;;;;;;;;;;10316883;28;20048;-62
2021/08/16 14:48:10;;;;;;;6.07;4.10;;;;;;;;;;10316064;28;20048;-62
2021/08/16 14:53:09;;;;;;;8.52;4.82;;;;;;;;;;10316853;28;20055;-62
2021/08/16 14:58:08;;;;;;;7.10;4.70;;;;;;;;;;10316624;28;20072;-62
2021/08/16 15:03:09;;;;;;;12.15;4.63;;;;;;;;;;10315844;28;20040;-61
2021/08/16 15:08:08;;;;;;;8.85;4.22;;;;;;;;;;10315071;28;20328;-62
2021/08/16 15:13:06;;;;;;;6.40;4.53;;;;;;;;;;10316257;28;20040;-61
2021/08/16 15:18:06;;;;;;;6.25;5.10;;;;;;;;;;10316174;28;20076;-62
2021/08/16 15:23:04;;;;;;;5.55;4.40;;;;;;;;;;10316146;28;20053;-62
2021/08/16 15:28:03;;;;;;;6.72;4.70;;;;;;;;;;10324110;28;20083;-62
2021/08/16 15:33:01;;;;;;;5.50;4.63;;;;;;;;;;10324002;28;20048;-61
2021/08/16 15:38:01;;;;;;;7.95;5.15;;;;;;;;;;10323749;28;20469;-61
2021/08/16 15:42:59;;;;;;;9.05;7.63;;;;;;;;;;10323655;28;20041;-61
2021/08/16 15:47:57;;;;;;;7.28;5.38;;;;;;;;;;10322799;28;20678;-61
2021/08/16 15:52:56;;;;;;;8.60;6.47;;;;;;;;;;10323173;28;20421;-61
2021/08/16 15:57:55;;;;;;;5.30;4.80;;;;;;;;;;10322886;28;20088;-61
2021/08/16 16:02:54;;;;;;;5.95;4.88;;;;;;;;;;10322688;28;20040;-61
2021/08/16 16:07:52;;;;;;;5.95;4.85;;;;;;;;;;10322603;28;20045;-61
2021/08/16 16:12:52;;;;;;;5.60;4.40;;;;;;;;;;10322489;28;20044;-61
2021/08/16 16:17:51;;;;;;;5.40;4.90;;;;;;;;;;10322085;28;20497;-62
2021/08/16 16:22:59;;;;;;;6.68;5.20;;;;;;;;;;10322267;28;20037;-61
2021/08/16 16:27:57;;;;;;;8.23;5.03;;;;;;;;;;10321127;28;20064;-61
2021/08/16 16:32:58;;;;;;;5.47;4.97;;;;;;;;;;10321588;28;20075;-61
2021/08/16 16:37:57;;;;;;;11.68;4.85;;;;;;;;;;10320811;28;20088;-60
2021/08/16 16:42:55;;;;;;;9.07;5.10;;;;;;;;;;10320976;28;20060;-60
2021/08/16 16:47:53;;;;;;;10.00;5.65;;;;;;;;;;10320090;28;20433;-60
2021/08/16 16:52:54;;;;;;;6.70;4.82;;;;;;;;;;10320844;28;20064;-60
2021/08/16 16:57:52;;;;;;;7.45;4.72;;;;;;;;;;10320472;28;20080;-61
2021/08/16 17:02:51;;;;;;;7.70;5.00;;;;;;;;;;10320610;28;20087;-61
2021/08/16 17:07:50;;;;;;;8.73;5.53;;;;;;;;;;10320246;28;20049;-60
2021/08/16 17:12:50;;;;;;;7.85;6.95;;;;;;;;;;10319993;28;20076;-60
2021/08/16 17:17:49;;;;;;;7.93;6.35;;;;;;;;;;10319632;28;20364;-60
2021/08/16 17:22:48;;;;;;;9.23;7.90;;;;;;;;;;10319838;28;20048;-60
2021/08/16 17:27:46;;;;;;;14.13;8.77;;;;;;;;;;10319197;28;20040;-61
2021/08/16 17:32:46;;;;;;;8.07;6.20;;;;;;;;;;10319378;28;20044;-60
2021/08/16 17:37:44;;;;;;;8.98;5.93;;;;;;;;;;10319426;28;20103;-60
2021/08/16 17:42:43;;;;;;;9.05;5.13;;;;;;;;;;10318595;28;20044;-60
2021/08/16 17:47:41;;;;;;;8.63;5.57;;;;;;;;;;10317400;28;20075;-60
2021/08/16 17:52:41;;;;;;;7.18;5.68;;;;;;;;;;10318340;28;20048;-60
2021/08/16 17:57:40;;;;;;;7.88;6.53;;;;;;;;;;10318114;28;20298;-59
2021/08/16 18:02:38;;;;;;;12.07;8.20;;;;;;;;;;10317817;28;20045;-60
2021/08/16 18:07:38;;;;;;;10.32;4.88;;;;;;;;;;10317452;28;20049;-60
2021/08/16 18:12:38;;;;;;;10.20;9.18;;;;;;;;;;10315586;28;20079;-60
2021/08/16 18:17:36;;;;;;;7.03;5.05;;;;;;;;;;10317439;28;20080;-60
2021/08/16 18:22:35;;;;;;;7.75;5.60;;;;;;;;;;10317419;28;20036;-60
2021/08/16 18:27:33;;;;;;;10.13;6.70;;;;;;;;;;10317149;28;20525;-59
2021/08/16 18:32:33;;;;;;;6.68;5.00;;;;;;;;;;10317310;28;20047;-60
2021/08/16 18:37:32;;;;;;;6.78;4.10;;;;;;;;;;10316873;28;20091;-61
2021/08/16 18:42:30;;;;;;;5.43;4.78;;;;;;;;;;10316950;28;20080;-60
2021/08/16 18:47:29;;;;;;;5.68;3.85;;;;;;;;;;10316711;28;20401;-61
2021/08/16 18:52:28;;;;;;;5.10;4.22;;;;;;;;;;10316682;28;20044;-60
2021/08/16 18:57:27;;;;;;;6.70;4.13;;;;;;;;;;10316254;28;20159;-58
2021/08/16 19:02:25;;;;;;;3.83;3.40;;;;;;;;;;10316341;28;20410;-60
2021/08/16 19:07:23;;;;;;;5.22;3.92;;;;;;;;;;10316405;28;20052;-60
2021/08/16 19:12:24;;;;;;;4.30;3.90;;;;;;;;;;10316401;28;20059;-59
2021/08/16 19:17:22;;;;;;;3.65;3.35;;;;;;;;;;10316534;28;20505;-61
2021/08/16 19:22:20;;;;;;;7.93;4.05;;;;;;;;;;10314551;28;20044;-59
2021/08/16 19:27:19;;;;;;;7.20;4.00;;;;;;;;;;10315839;28;20037;-58
2021/08/16 19:32:19;;;;;;;6.55;4.00;;;;;;;;;;10315769;28;20040;-59
2021/08/16 19:37:21;;;;;;;8.50;4.17;;;;;;;;;;10315626;28;20048;-60
2021/08/16 19:42:23;;;;;;;6.10;4.55;;;;;;;;;;10315860;28;20048;-59
2021/08/16 19:47:22;;;;;;;1999.90;999.90;;;;;;;;;;10315050;28;20088;-60
2021/08/16 19:52:21;;;;;;;5.65;4.40;;;;;;;;;;10315526;28;20055;-59
2021/08/16 19:57:19;;;;;;;9.13;4.30;;;;;;;;;;10315129;28;20044;-59
2021/08/16 20:02:20;;;;;;;4.45;4.05;;;;;;;;;;10314207;28;20492;-59
2021/08/16 20:07:20;;;;;;;5.32;3.70;;;;;;;;;;10315152;28;20040;-60
2021/08/16 20:12:19;;;;;;;6.32;4.15;;;;;;;;;;10318186;28;20049;-59
2021/08/16 20:17:18;;;;;;;7.22;4.45;;;;;;;;;;10322305;28;20433;-60
2021/08/16 20:22:16;;;;;;;5.28;3.67;;;;;;;;;;10321987;28;20079;-59
2021/08/16 20:27:16;;;;;;;6.20;3.70;;;;;;;;;;10321698;28;20049;-59
2021/08/16 20:32:14;;;;;;;4.90;3.70;;;;;;;;;;10321704;28;20040;-59
2021/08/16 20:37:12;;;;;;;6.65;4.20;;;;;;;;;;10321730;28;20076;-60
2021/08/16 20:42:11;;;;;;;5.38;3.53;;;;;;;;;;10321090;28;20072;-60
2021/08/16 20:47:10;;;;;;;7.05;4.70;;;;;;;;;;10320329;28;20056;-61
2021/08/16 20:52:09;;;;;;;5.55;3.83;;;;;;;;;;10321129;28;20091;-61
2021/08/16 20:57:07;;;;;;;7.25;3.95;;;;;;;;;;10320925;28;20055;-60
2021/08/16 21:02:06;;;;;;;5.70;3.75;;;;;;;;;;10319851;28;20084;-61
2021/08/16 21:07:06;;;;;;;5.95;3.90;;;;;;;;;;10320530;28;20044;-61
2021/08/16 21:12:07;;;;;;;6.53;4.18;;;;;;;;;;10319854;28;20051;-60
2021/08/16 21:17:05;;;;;;;10.40;3.88;;;;;;;;;;10319690;28;20085;-59
2021/08/16 21:22:04;;;;;;;4.43;3.70;;;;;;;;;;10319677;28;20087;-59
2021/08/16 21:27:09;;;;;;;4.30;3.28;;;;;;;;;;10319655;28;20482;-59
2021/08/16 21:32:09;;;;;;;5.75;3.83;;;;;;;;;;10319226;28;20047;-61
2021/08/16 21:37:07;;;;;;;5.82;4.00;;;;;;;;;;10318865;28;20044;-60
2021/08/16 21:42:08;;;;;;;6.28;3.67;;;;;;;;;;10318427;28;20080;-60
2021/08/16 21:47:06;;;;;;;7.22;3.90;;;;;;;;;;10318484;28;20055;-60
2021/08/16 21:52:05;;;;;;;5.47;3.70;;;;;;;;;;10318259;28;20086;-60
2021/08/16 21:57:04;;;;;;;4.72;3.80;;;;;;;;;;10318577;28;20084;-60
2021/08/16 22:02:04;;;;;;;9.13;3.33;;;;;;;;;;10317831;28;20084;-60
2021/08/16 22:07:04;;;;;;;9.73;3.63;;;;;;;;;;10317929;28;20048;-60
2021/08/16 22:12:02;;;;;;;6.07;4.00;;;;;;;;;;10317387;28;20076;-60
2021/08/16 22:17:01;;;;;;;4.28;3.85;;;;;;;;;;10317778;28;20080;-61
2021/08/16 22:22:00;;;;;;;9.23;3.67;;;;;;;;;;10317219;28;20083;-60
2021/08/16 22:26:59;;;;;;;5.25;3.67;;;;;;;;;;10317025;28;20064;-60
2021/08/16 22:31:57;;;;;;;4.32;3.60;;;;;;;;;;10317058;28;20097;-61
2021/08/16 22:36:55;;;;;;;6.38;3.95;;;;;;;;;;10316513;28;20040;-61
2021/08/16 22:41:56;;;;;;;5.10;3.50;;;;;;;;;;10316063;28;20086;-60
2021/08/16 22:46:54;;;;;;;4.53;3.33;;;;;;;;;;10316242;28;20810;-59
2021/08/16 22:51:53;;;;;;;5.57;3.90;;;;;;;;;;10316516;28;20079;-58
2021/08/16 22:56:52;;;;;;;6.32;3.53;;;;;;;;;;10316397;28;20056;-59
2021/08/16 23:01:51;;;;;;;9.07;4.32;;;;;;;;;;10316279;28;20079;-58
2021/08/16 23:06:50;;;;;;;5.75;3.90;;;;;;;;;;10315928;28;20059;-59
2021/08/16 23:11:48;;;;;;;4.05;3.58;;;;;;;;;;10316356;28;20041;-59
2021/08/16 23:16:47;;;;;;;3.97;3.13;;;;;;;;;;10316143;28;20041;-60
2021/08/16 23:21:47;;;;;;;12.48;3.60;;;;;;;;;;10316043;28;20494;-60
2021/08/16 23:26:45;;;;;;;7.40;3.45;;;;;;;;;;10316276;28;20055;-60
2021/08/16 23:31:44;;;;;;;5.20;4.43;;;;;;;;;;10316116;28;20069;-59
2021/08/16 23:36:42;;;;;;;4.13;3.33;;;;;;;;;;10315335;28;20075;-60
2021/08/16 23:41:42;;;;;;;5.03;3.83;;;;;;;;;;10315302;28;20079;-60
2021/08/16 23:46:40;;;;;;;4.45;3.83;;;;;;;;;;10317706;28;20509;-60
2021/08/16 23:51:39;;;;;;;5.45;4.00;;;;;;;;;;10323060;28;20036;-59
2021/08/16 23:56:37;;;;;;;5.30;3.95;;;;;;;;;;10322937;28;20036;-61
